Time;durP1;ratioP1;P1;durP2;ratioP2;P2;SDS_P1;SDS_P2;PMS_P1;PMS_P2;Temp;Humidity;BMP_temperature;BMP_pressure;BME280_temperature;BME280_humidity;BME280_pressure;Samples;Min_cycle;Max_cycle;Signal;HPM_P1;HPM_P2
2021/12/06 00:01:42;;;;;;;2.63;1.63;;;;;;;;;;5075063;28;20196;-83
2021/12/06 00:04:15;;;;;;;2.42;2.22;;;;;;;;;;5062337;28;20222;-83
2021/12/06 00:06:47;;;;;;;2.70;2.50;;;;;;;;;;5054846;28;20425;-83
2021/12/06 00:09:21;;;;;;;2.75;1.83;;;;;;;;;;5054758;28;20221;-82
2021/12/06 00:11:56;;;;;;;2.08;1.90;;;;;;;;;;5054920;28;20195;-83
2021/12/06 00:14:27;;;;;;;2.53;2.22;;;;;;;;;;5054069;28;20229;-83
2021/12/06 00:16:55;;;;;;;2.20;2.00;;;;;;;;;;5054247;28;20638;-83
2021/12/06 00:19:22;;;;;;;2.42;2.22;;;;;;;;;;5054441;28;20193;-83
2021/12/06 00:21:50;;;;;;;3.70;3.33;;;;;;;;;;5054173;28;20189;-83
2021/12/06 00:24:19;;;;;;;2.13;1.92;;;;;;;;;;5053813;28;20599;-83
2021/12/06 00:26:47;;;;;;;2.35;2.15;;;;;;;;;;5054279;28;20205;-83
2021/12/06 00:29:15;;;;;;;2.45;2.17;;;;;;;;;;5054621;28;20202;-83
2021/12/06 00:31:44;;;;;;;1.80;1.63;;;;;;;;;;5054193;28;20182;-83
2021/12/06 00:34:16;;;;;;;1.30;1.20;;;;;;;;;;5054131;28;20257;-82
2021/12/06 00:36:54;;;;;;;1.10;1.10;;;;;;;;;;5053667;28;20190;-82
2021/12/06 00:39:24;;;;;;;2.60;1.30;;;;;;;;;;5054907;28;20264;-83
2021/12/06 00:41:52;;;;;;;3.92;1.80;;;;;;;;;;5073998;28;20226;-83
2021/12/06 00:44:20;;;;;;;1.10;1.10;;;;;;;;;;5074190;28;20229;-83
2021/12/06 00:46:47;;;;;;;1.70;1.60;;;;;;;;;;5074413;28;20181;-83
2021/12/06 00:49:15;;;;;;;1.75;1.65;;;;;;;;;;5074021;28;20235;-83
2021/12/06 00:51:42;;;;;;;1.90;1.80;;;;;;;;;;5073699;28;20200;-83
2021/12/06 00:54:11;;;;;;;2.03;1.92;;;;;;;;;;5074180;28;20228;-83
2021/12/06 00:56:40;;;;;;;2.30;2.10;;;;;;;;;;5074065;28;20192;-83
2021/12/06 00:59:07;;;;;;;1.73;1.63;;;;;;;;;;5073857;28;20698;-83
2021/12/06 01:01:36;;;;;;;2.08;1.88;;;;;;;;;;5073868;28;20188;-83
2021/12/06 01:04:04;;;;;;;2.25;2.05;;;;;;;;;;5073754;28;20236;-83
2021/12/06 01:06:32;;;;;;;2.75;2.40;;;;;;;;;;5073512;28;20178;-82
2021/12/06 01:08:59;;;;;;;2.25;2.03;;;;;;;;;;5073822;28;20204;-82
2021/12/06 01:11:27;;;;;;;1.95;1.70;;;;;;;;;;5073803;28;20208;-82
2021/12/06 01:13:56;;;;;;;4.13;2.08;;;;;;;;;;5073526;28;20217;-82
2021/12/06 01:16:24;;;;;;;2.40;2.10;;;;;;;;;;5073834;28;20213;-83
2021/12/06 01:18:52;;;;;;;2.58;1.95;;;;;;;;;;5074264;28;20254;-83
2021/12/06 01:21:25;;;;;;;2.15;1.92;;;;;;;;;;5074168;28;20186;-83
2021/12/06 01:23:57;;;;;;;3.05;2.38;;;;;;;;;;5073522;28;20662;-82
2021/12/06 01:29:45;;;;;;;3.10;2.15;;;;;;;;;;5069457;28;20266;-83
2021/12/06 01:32:23;;;;;;;2.83;2.10;;;;;;;;;;5070201;28;20757;-83
2021/12/06 01:40:22;;;;;;;2.97;2.78;;;;;;;;;;5055721;28;20565;-83
2021/12/06 01:42:50;;;;;;;3.88;3.58;;;;;;;;;;5057841;28;20186;-83
2021/12/06 01:45:19;;;;;;;3.97;3.67;;;;;;;;;;5057578;28;20218;-82
2021/12/06 01:47:47;;;;;;;4.60;3.55;;;;;;;;;;5057711;28;20188;-83
2021/12/06 01:50:19;;;;;;;5.93;5.32;;;;;;;;;;5057616;28;20227;-82
2021/12/06 01:52:51;;;;;;;5.15;4.65;;;;;;;;;;5057024;28;20190;-82
2021/12/06 01:55:23;;;;;;;7.10;5.57;;;;;;;;;;5074242;28;20221;-83
2021/12/06 01:57:53;;;;;;;7.20;6.22;;;;;;;;;;5078269;28;20189;-82
2021/12/06 02:00:26;;;;;;;5.07;4.65;;;;;;;;;;5078173;28;20237;-83
2021/12/06 02:02:53;;;;;;;5.88;5.38;;;;;;;;;;5078493;28;20661;-82
2021/12/06 02:05:21;;;;;;;6.32;5.72;;;;;;;;;;5078433;28;20209;-83
2021/12/06 02:07:49;;;;;;;7.25;5.07;;;;;;;;;;5067966;28;20205;-83
2021/12/06 02:10:17;;;;;;;6.20;5.47;;;;;;;;;;5057175;28;20210;-82
2021/12/06 02:12:47;;;;;;;6.18;5.57;;;;;;;;;;5068545;28;20185;-82
2021/12/06 02:15:28;;;;;;;5.40;5.00;;;;;;;;;;5077257;28;20276;-82
2021/12/06 02:18:05;;;;;;;6.65;5.20;;;;;;;;;;5057506;28;20209;-82
2021/12/06 02:20:36;;;;;;;4.90;4.50;;;;;;;;;;5057209;28;20232;-82
2021/12/06 02:23:05;;;;;;;5.45;5.03;;;;;;;;;;5056656;28;20208;-82
2021/12/06 02:25:33;;;;;;;5.30;4.80;;;;;;;;;;5056811;28;20238;-82
2021/12/06 02:28:01;;;;;;;4.70;4.32;;;;;;;;;;5056847;28;20564;-83
2021/12/06 02:30:29;;;;;;;5.05;4.47;;;;;;;;;;5056651;28;20232;-83
2021/12/06 02:32:57;;;;;;;5.10;4.70;;;;;;;;;;5056912;28;20178;-83
2021/12/06 02:35:24;;;;;;;6.85;3.95;;;;;;;;;;5056650;28;20674;-83
2021/12/06 02:37:53;;;;;;;4.35;3.75;;;;;;;;;;5055676;28;20193;-83
2021/12/06 02:40:27;;;;;;;4.05;3.75;;;;;;;;;;5057210;28;20186;-83
2021/12/06 02:42:57;;;;;;;4.60;3.17;;;;;;;;;;5056494;28;20193;-83
2021/12/06 02:45:26;;;;;;;5.13;4.57;;;;;;;;;;5056948;28;20224;-83
2021/12/06 02:47:55;;;;;;;3.95;3.63;;;;;;;;;;5056611;28;20193;-83
2021/12/06 02:50:30;;;;;;;4.85;3.75;;;;;;;;;;5056325;28;20206;-83
2021/12/06 02:52:57;;;;;;;4.63;3.28;;;;;;;;;;5056395;28;20208;-83
2021/12/06 02:55:32;;;;;;;4.30;3.30;;;;;;;;;;5056419;28;20225;-83
2021/12/06 02:58:13;;;;;;;4.40;3.55;;;;;;;;;;5057084;28;20261;-83
2021/12/06 03:00:43;;;;;;;5.10;3.75;;;;;;;;;;5056402;28;20198;-83
2021/12/06 03:03:11;;;;;;;3.95;3.60;;;;;;;;;;5056343;28;20194;-83
2021/12/06 03:05:39;;;;;;;4.78;3.63;;;;;;;;;;5055966;28;20703;-83
2021/12/06 03:08:07;;;;;;;6.35;3.30;;;;;;;;;;5057060;28;20265;-83
2021/12/06 03:10:36;;;;;;;3.40;3.10;;;;;;;;;;5057050;28;20224;-83
2021/12/06 03:13:04;;;;;;;2.90;2.60;;;;;;;;;;5057104;28;20217;-83
2021/12/06 03:15:32;;;;;;;3.35;3.15;;;;;;;;;;5070063;28;20224;-82
2021/12/06 03:17:59;;;;;;;2.47;2.15;;;;;;;;;;5076785;28;20558;-83
2021/12/06 03:20:27;;;;;;;2.35;2.15;;;;;;;;;;5076509;28;20191;-83
2021/12/06 03:22:54;;;;;;;2.10;1.92;;;;;;;;;;5076526;28;20188;-83
2021/12/06 03:25:22;;;;;;;1.77;1.63;;;;;;;;;;5087230;22;20224;-82
2021/12/06 03:27:51;;;;;;;1.98;1.88;;;;;;;;;;5073728;28;20188;-82
2021/12/06 03:30:19;;;;;;;2.13;1.92;;;;;;;;;;5072218;28;20565;-86
2021/12/06 03:32:46;;;;;;;3.58;2.35;;;;;;;;;;5073086;28;20643;-86
2021/12/06 03:35:14;;;;;;;2.55;2.42;;;;;;;;;;5073780;28;20227;-82
2021/12/06 03:37:42;;;;;;;1.73;1.63;;;;;;;;;;5073309;28;20201;-84
2021/12/06 03:40:10;;;;;;;3.00;2.80;;;;;;;;;;5075148;28;20205;-84
2021/12/06 03:42:38;;;;;;;3.35;2.70;;;;;;;;;;5074491;28;20213;-83
2021/12/06 03:45:10;;;;;;;2.30;2.10;;;;;;;;;;5070001;28;20210;-84
2021/12/06 03:47:38;;;;;;;2.70;2.50;;;;;;;;;;5055157;28;20200;-84
2021/12/06 03:50:10;;;;;;;2.92;2.72;;;;;;;;;;5057914;28;20185;-84
2021/12/06 03:52:38;;;;;;;2.65;2.40;;;;;;;;;;5065929;28;20201;-84
2021/12/06 03:55:08;;;;;;;2.67;2.35;;;;;;;;;;5067013;28;20292;-84
2021/12/06 03:57:36;;;;;;;2.53;2.33;;;;;;;;;;5054258;28;20198;-84
2021/12/06 04:00:08;;;;;;;1.60;1.50;;;;;;;;;;5068982;28;20200;-81
2021/12/06 04:02:35;;;;;;;2.28;2.05;;;;;;;;;;5074499;28;20212;-82
2021/12/06 04:05:03;;;;;;;2.78;2.00;;;;;;;;;;5068695;28;20217;-84
2021/12/06 04:07:31;;;;;;;1.90;1.80;;;;;;;;;;5055736;28;20186;-84
2021/12/06 04:09:59;;;;;;;3.67;2.58;;;;;;;;;;5056133;28;20197;-83
2021/12/06 04:12:26;;;;;;;1.80;1.70;;;;;;;;;;5055521;28;20196;-84
2021/12/06 04:14:56;;;;;;;3.05;2.45;;;;;;;;;;5056385;28;20221;-85
2021/12/06 04:17:24;;;;;;;4.03;2.97;;;;;;;;;;5056142;28;20272;-84
2021/12/06 04:19:52;;;;;;;2.85;2.20;;;;;;;;;;5055624;28;20205;-85
2021/12/06 04:22:20;;;;;;;3.80;2.08;;;;;;;;;;5056857;28;20194;-85
2021/12/06 04:24:48;;;;;;;4.90;2.53;;;;;;;;;;5073439;28;20228;-84
2021/12/06 04:27:16;;;;;;;1.95;1.85;;;;;;;;;;5075030;28;20207;-83
2021/12/06 04:29:46;;;;;;;1.63;1.52;;;;;;;;;;5074942;28;20619;-84
2021/12/06 04:32:14;;;;;;;4.03;2.40;;;;;;;;;;5074906;28;20225;-84
2021/12/06 04:34:43;;;;;;;2.13;1.92;;;;;;;;;;5075313;28;20227;-83
2021/12/06 04:37:11;;;;;;;2.45;2.05;;;;;;;;;;5075597;28;20192;-84
2021/12/06 04:39:40;;;;;;;1.60;1.50;;;;;;;;;;5075909;28;20189;-84
2021/12/06 04:42:09;;;;;;;2.45;1.73;;;;;;;;;;5074844;28;20197;-82
2021/12/06 04:44:36;;;;;;;2.30;1.98;;;;;;;;;;5067408;28;20229;-84
2021/12/06 04:47:05;;;;;;;2.05;1.65;;;;;;;;;;5060221;28;20211;-80
2021/12/06 04:49:33;;;;;;;2.63;2.42;;;;;;;;;;5055168;28;20531;-83
2021/12/06 04:52:05;;;;;;;3.45;2.42;;;;;;;;;;5053309;28;20209;-84
2021/12/06 04:54:39;;;;;;;1.70;1.60;;;;;;;;;;5053505;28;20217;-84
2021/12/06 04:57:12;;;;;;;2.13;1.85;;;;;;;;;;5054053;28;20182;-84
2021/12/06 04:59:43;;;;;;;1.77;1.67;;;;;;;;;;5052874;28;20192;-82
2021/12/06 05:02:16;;;;;;;2.30;1.90;;;;;;;;;;5053277;28;20190;-83
2021/12/06 05:04:50;;;;;;;2.15;1.65;;;;;;;;;;5063713;28;20227;-84
2021/12/06 05:07:23;;;;;;;3.15;2.15;;;;;;;;;;5073140;28;20196;-84
2021/12/06 05:09:51;;;;;;;2.03;1.92;;;;;;;;;;5074080;28;20533;-83
2021/12/06 05:12:21;;;;;;;1.58;1.48;;;;;;;;;;5073545;28;20602;-82
2021/12/06 05:14:49;;;;;;;4.82;3.28;;;;;;;;;;5077294;28;20221;-82
2021/12/06 05:17:16;;;;;;;4.38;2.80;;;;;;;;;;5077652;28;20174;-81
2021/12/06 05:19:44;;;;;;;3.65;2.95;;;;;;;;;;5069278;28;20205;-84
2021/12/06 05:22:12;;;;;;;4.13;3.13;;;;;;;;;;5057746;28;20548;-83
2021/12/06 05:24:41;;;;;;;5.45;4.10;;;;;;;;;;5058857;28;20244;-83
2021/12/06 05:27:08;;;;;;;5.15;4.05;;;;;;;;;;5078056;28;20736;-84
2021/12/06 05:29:43;;;;;;;6.30;4.95;;;;;;;;;;5078105;28;20549;-83
2021/12/06 05:32:11;;;;;;;5.38;4.18;;;;;;;;;;5077629;28;20655;-82
2021/12/06 05:34:43;;;;;;;4.68;4.22;;;;;;;;;;5077474;28;20758;-83
2021/12/06 05:37:13;;;;;;;8.98;4.78;;;;;;;;;;5058732;28;20236;-84
2021/12/06 05:39:42;;;;;;;5.57;4.20;;;;;;;;;;5058765;28;20550;-82
2021/12/06 05:42:12;;;;;;;4.40;4.00;;;;;;;;;;5059497;28;20190;-83
2021/12/06 05:44:41;;;;;;;5.65;4.63;;;;;;;;;;5073039;28;20215;-83
2021/12/06 05:47:09;;;;;;;4.63;4.15;;;;;;;;;;5077512;28;20556;-81
2021/12/06 05:49:37;;;;;;;7.05;4.93;;;;;;;;;;5076039;28;20185;-81
2021/12/06 05:52:06;;;;;;;7.70;4.68;;;;;;;;;;5075827;28;20232;-81
2021/12/06 05:54:34;;;;;;;6.00;4.63;;;;;;;;;;5062585;28;20214;-80
2021/12/06 05:57:04;;;;;;;5.65;4.32;;;;;;;;;;5056389;28;20291;-83
2021/12/06 05:59:32;;;;;;;8.02;4.78;;;;;;;;;;5056905;28;20182;-81
2021/12/06 06:01:59;;;;;;;7.57;4.38;;;;;;;;;;5064572;28;20197;-83
2021/12/06 06:04:27;;;;;;;5.20;4.05;;;;;;;;;;5077306;28;20217;-82
2021/12/06 06:06:56;;;;;;;3.78;3.45;;;;;;;;;;5076629;28;20185;-82
2021/12/06 06:09:24;;;;;;;4.93;3.92;;;;;;;;;;5076526;28;20205;-82
2021/12/06 06:11:51;;;;;;;5.95;3.70;;;;;;;;;;5076709;28;20207;-82
2021/12/06 06:14:20;;;;;;;6.78;3.67;;;;;;;;;;5075683;28;20213;-83
2021/12/06 06:16:52;;;;;;;5.85;4.07;;;;;;;;;;5059371;28;20667;-82
2021/12/06 06:19:22;;;;;;;4.38;3.78;;;;;;;;;;5057302;28;20206;-83
2021/12/06 06:21:51;;;;;;;4.63;4.22;;;;;;;;;;5057257;28;20190;-83
2021/12/06 06:24:19;;;;;;;5.78;4.32;;;;;;;;;;5075903;28;20221;-83
2021/12/06 06:26:46;;;;;;;9.27;5.65;;;;;;;;;;5076160;28;20209;-81
2021/12/06 06:29:14;;;;;;;5.47;4.80;;;;;;;;;;5077316;28;20181;-82
2021/12/06 06:31:43;;;;;;;4.57;4.05;;;;;;;;;;5077105;28;20574;-83
2021/12/06 06:34:11;;;;;;;5.88;4.53;;;;;;;;;;5073608;28;20201;-82
2021/12/06 06:36:39;;;;;;;4.10;3.72;;;;;;;;;;5055357;28;20197;-83
2021/12/06 06:39:09;;;;;;;4.57;3.60;;;;;;;;;;5055380;28;20186;-83
2021/12/06 06:41:37;;;;;;;3.10;2.80;;;;;;;;;;5058143;28;20620;-84
2021/12/06 06:44:06;;;;;;;2.78;2.58;;;;;;;;;;5056115;28;20182;-83
2021/12/06 06:46:33;;;;;;;3.53;3.22;;;;;;;;;;5075933;28;20212;-84
2021/12/06 06:49:03;;;;;;;2.80;2.60;;;;;;;;;;5078789;28;20192;-83
2021/12/06 06:51:33;;;;;;;3.08;2.78;;;;;;;;;;5076265;28;20212;-83
2021/12/06 06:54:00;;;;;;;3.53;3.03;;;;;;;;;;5076202;28;20216;-84
2021/12/06 06:56:28;;;;;;;2.63;2.42;;;;;;;;;;5076483;28;20215;-83
2021/12/06 06:58:56;;;;;;;3.42;3.13;;;;;;;;;;5073114;28;20209;-82
2021/12/06 07:01:24;;;;;;;3.30;3.10;;;;;;;;;;5072249;28;20566;-83
2021/12/06 07:03:54;;;;;;;3.63;3.33;;;;;;;;;;5056225;28;20205;-82
2021/12/06 07:06:25;;;;;;;3.28;2.97;;;;;;;;;;5063357;28;20186;-83
2021/12/06 07:08:54;;;;;;;5.10;4.53;;;;;;;;;;5075623;28;20781;-83
2021/12/06 07:11:22;;;;;;;3.90;3.60;;;;;;;;;;5076032;28;20189;-82
2021/12/06 07:13:50;;;;;;;3.20;3.00;;;;;;;;;;5076506;28;20236;-83
2021/12/06 07:16:19;;;;;;;3.10;2.90;;;;;;;;;;5075753;28;20224;-83
2021/12/06 07:18:47;;;;;;;3.47;3.17;;;;;;;;;;5076175;28;20653;-84
2021/12/06 07:21:17;;;;;;;4.65;4.22;;;;;;;;;;5077303;28;20189;-83
2021/12/06 07:23:48;;;;;;;3.35;3.03;;;;;;;;;;5077883;28;20185;-85
2021/12/06 07:26:19;;;;;;;3.25;3.05;;;;;;;;;;5076708;28;20239;-84
2021/12/06 07:28:49;;;;;;;2.65;2.45;;;;;;;;;;5078451;28;20556;-84
2021/12/06 07:31:17;;;;;;;2.60;2.40;;;;;;;;;;5075514;28;20181;-85
2021/12/06 07:33:47;;;;;;;3.25;3.00;;;;;;;;;;5057563;28;20209;-86
2021/12/06 07:36:15;;;;;;;3.60;3.30;;;;;;;;;;5071384;28;20714;-83
2021/12/06 07:38:42;;;;;;;2.60;2.50;;;;;;;;;;5076153;28;20216;-85
2021/12/06 07:41:14;;;;;;;3.55;3.25;;;;;;;;;;5077771;28;20189;-84
2021/12/06 07:43:42;;;;;;;2.75;2.55;;;;;;;;;;5077406;28;20192;-86
2021/12/06 07:46:10;;;;;;;2.85;2.65;;;;;;;;;;5077338;28;20235;-86
2021/12/06 07:48:39;;;;;;;4.25;2.72;;;;;;;;;;5064700;28;20205;-82
2021/12/06 07:51:07;;;;;;;3.40;2.95;;;;;;;;;;5075191;28;20185;-83
2021/12/06 07:53:38;;;;;;;3.25;3.00;;;;;;;;;;5072427;28;20224;-83
2021/12/06 07:56:06;;;;;;;2.92;2.72;;;;;;;;;;5076800;28;20225;-81
2021/12/06 07:58:35;;;;;;;2.70;2.50;;;;;;;;;;5076678;28;20177;-82
2021/12/06 08:01:02;;;;;;;4.80;4.30;;;;;;;;;;5057189;28;20610;-82
2021/12/06 08:03:31;;;;;;;5.65;5.15;;;;;;;;;;5056846;28;20571;-84
2021/12/06 08:05:59;;;;;;;4.45;4.05;;;;;;;;;;5057774;28;20261;-82
2021/12/06 08:08:30;;;;;;;9.65;4.28;;;;;;;;;;5058060;28;20186;-83
2021/12/06 08:11:02;;;;;;;5.65;3.80;;;;;;;;;;5060302;28;20654;-83
2021/12/06 08:13:33;;;;;;;4.10;3.70;;;;;;;;;;5073317;28;20260;-84
2021/12/06 08:16:05;;;;;;;3.00;2.80;;;;;;;;;;5077592;28;20701;-82
2021/12/06 08:18:32;;;;;;;4.15;3.75;;;;;;;;;;5059063;28;20189;-82
2021/12/06 08:21:00;;;;;;;3.88;3.42;;;;;;;;;;5058822;28;20201;-82
2021/12/06 08:23:28;;;;;;;3.83;3.53;;;;;;;;;;5063736;28;20805;-81
2021/12/06 08:25:56;;;;;;;4.70;4.30;;;;;;;;;;5079143;28;20240;-82
2021/12/06 08:28:24;;;;;;;3.45;3.25;;;;;;;;;;5069100;28;20190;-82
2021/12/06 08:30:53;;;;;;;3.83;3.45;;;;;;;;;;5057359;28;20221;-81
2021/12/06 08:33:22;;;;;;;6.40;5.80;;;;;;;;;;5056798;28;20216;-82
2021/12/06 08:35:53;;;;;;;4.78;4.38;;;;;;;;;;5059848;28;20233;-81
2021/12/06 08:38:23;;;;;;;5.40;4.65;;;;;;;;;;5057871;28;20190;-82
2021/12/06 08:40:52;;;;;;;4.88;4.47;;;;;;;;;;5057277;28;20188;-82
2021/12/06 08:43:20;;;;;;;4.43;4.03;;;;;;;;;;5057141;28;20198;-82
2021/12/06 08:45:52;;;;;;;3.08;2.83;;;;;;;;;;5057818;28;20225;-83
2021/12/06 08:48:24;;;;;;;3.63;3.30;;;;;;;;;;5057479;28;20219;-80
2021/12/06 08:50:53;;;;;;;4.20;3.80;;;;;;;;;;5058032;28;20235;-81
2021/12/06 08:53:21;;;;;;;4.40;4.10;;;;;;;;;;5057491;28;20210;-82
2021/12/06 08:55:49;;;;;;;3.65;3.35;;;;;;;;;;5059787;28;20223;-81
2021/12/06 08:58:17;;;;;;;3.10;2.85;;;;;;;;;;5075819;28;20197;-83
2021/12/06 09:00:44;;;;;;;3.58;3.28;;;;;;;;;;5078082;28;20543;-81
2021/12/06 09:03:12;;;;;;;4.00;3.60;;;;;;;;;;5078102;28;20192;-83
2021/12/06 09:05:45;;;;;;;4.28;3.85;;;;;;;;;;5077793;28;20217;-81
2021/12/06 09:08:12;;;;;;;4.30;3.90;;;;;;;;;;5077816;28;20196;-81
2021/12/06 09:10:41;;;;;;;4.93;4.50;;;;;;;;;;5078251;28;20216;-81
2021/12/06 09:13:08;;;;;;;4.60;4.15;;;;;;;;;;5077303;28;20197;-81
2021/12/06 09:15:36;;;;;;;5.30;4.55;;;;;;;;;;5076738;28;20225;-82
2021/12/06 09:18:05;;;;;;;5.15;4.75;;;;;;;;;;5077452;28;20196;-81
2021/12/06 09:20:36;;;;;;;5.20;4.70;;;;;;;;;;5076845;28;20173;-81
2021/12/06 09:23:08;;;;;;;7.22;6.13;;;;;;;;;;5078189;28;20192;-81
2021/12/06 09:25:37;;;;;;;5.65;5.00;;;;;;;;;;5110020;22;20235;-84
2021/12/06 09:28:05;;;;;;;6.28;5.68;;;;;;;;;;5095844;28;20668;-83
2021/12/06 09:30:36;;;;;;;7.72;6.85;;;;;;;;;;5100632;28;20202;-83
2021/12/06 09:33:07;;;;;;;8.63;7.75;;;;;;;;;;5115647;28;20180;-81
2021/12/06 09:35:37;;;;;;;7.68;6.70;;;;;;;;;;5104941;28;20268;-82
2021/12/06 09:38:07;;;;;;;9.52;7.85;;;;;;;;;;5095967;28;20196;-84
2021/12/06 09:40:39;;;;;;;11.00;8.07;;;;;;;;;;5095679;28;20204;-81
2021/12/06 09:43:10;;;;;;;9.50;8.55;;;;;;;;;;5094885;28;20204;-83
2021/12/06 09:45:39;;;;;;;13.80;9.63;;;;;;;;;;5093752;28;20220;-83
2021/12/06 09:48:07;;;;;;;11.70;9.02;;;;;;;;;;5094978;28;20280;-82
2021/12/06 09:50:39;;;;;;;17.27;12.73;;;;;;;;;;5096777;28;20777;-84
2021/12/06 09:53:10;;;;;;;18.65;13.85;;;;;;;;;;5114966;28;20196;-82
2021/12/06 09:55:40;;;;;;;24.55;16.73;;;;;;;;;;5114646;28;20235;-83
2021/12/06 09:58:09;;;;;;;15.77;10.18;;;;;;;;;;5114424;28;20549;-82
2021/12/06 10:00:44;;;;;;;19.05;12.80;;;;;;;;;;5115206;28;20203;-82
2021/12/06 10:03:14;;;;;;;13.43;9.90;;;;;;;;;;5118199;28;20633;-83
2021/12/06 10:05:42;;;;;;;17.67;11.85;;;;;;;;;;5117952;28;20697;-83
2021/12/06 10:08:10;;;;;;;14.93;12.35;;;;;;;;;;5117166;28;20270;-83
2021/12/06 10:10:39;;;;;;;10.95;9.35;;;;;;;;;;5117307;28;20196;-83
2021/12/06 10:13:07;;;;;;;16.08;11.30;;;;;;;;;;5117127;28;20192;-83
2021/12/06 10:15:36;;;;;;;12.52;10.88;;;;;;;;;;5106290;28;20255;-83
2021/12/06 10:18:05;;;;;;;9.02;8.05;;;;;;;;;;5097092;28;20619;-83
2021/12/06 10:20:33;;;;;;;12.00;9.77;;;;;;;;;;5097207;28;20196;-83
2021/12/06 10:23:01;;;;;;;10.90;8.35;;;;;;;;;;5097181;28;20211;-84
2021/12/06 10:25:39;;;;;;;8.68;7.88;;;;;;;;;;5097818;28;20243;-83
2021/12/06 10:28:08;;;;;;;9.43;8.35;;;;;;;;;;5097562;28;20188;-84
2021/12/06 10:30:39;;;;;;;9.35;8.38;;;;;;;;;;5096841;28;20211;-82
2021/12/06 10:33:10;;;;;;;9.52;8.43;;;;;;;;;;5096473;28;20672;-83
2021/12/06 10:35:41;;;;;;;9.07;8.15;;;;;;;;;;5097160;28;20224;-83
2021/12/06 10:38:09;;;;;;;16.77;12.45;;;;;;;;;;5096786;28;20704;-83
2021/12/06 10:40:41;;;;;;;10.07;8.13;;;;;;;;;;5097187;28;20199;-84
2021/12/06 10:43:11;;;;;;;10.00;8.50;;;;;;;;;;5097110;28;20295;-83
2021/12/06 10:45:44;;;;;;;11.40;7.53;;;;;;;;;;5096840;28;20223;-82
2021/12/06 10:48:15;;;;;;;11.95;9.93;;;;;;;;;;5096818;28;20193;-83
2021/12/06 10:50:46;;;;;;;13.25;10.20;;;;;;;;;;5097175;28;20196;-82
2021/12/06 10:53:15;;;;;;;12.35;10.27;;;;;;;;;;5096891;28;20173;-84
2021/12/06 10:55:45;;;;;;;9.68;7.50;;;;;;;;;;5095796;28;20221;-83
2021/12/06 10:58:17;;;;;;;7.68;6.90;;;;;;;;;;5096156;28;20580;-84
2021/12/06 11:00:51;;;;;;;7.57;6.45;;;;;;;;;;5097049;28;20189;-83
2021/12/06 11:03:32;;;;;;;10.40;9.40;;;;;;;;;;5096865;28;20195;-84
2021/12/06 11:06:03;;;;;;;7.93;7.00;;;;;;;;;;5096947;28;20299;-83
2021/12/06 11:08:34;;;;;;;9.50;8.57;;;;;;;;;;5096928;28;20262;-83
2021/12/06 11:11:06;;;;;;;7.70;6.93;;;;;;;;;;5097417;28;20216;-84
2021/12/06 11:13:36;;;;;;;8.32;7.50;;;;;;;;;;5094938;28;20235;-83
2021/12/06 11:16:13;;;;;;;8.50;7.60;;;;;;;;;;5100270;28;20235;-83
2021/12/06 11:18:52;;;;;;;10.05;9.07;;;;;;;;;;5100532;28;20192;-83
2021/12/06 11:21:26;;;;;;;13.32;10.52;;;;;;;;;;5100639;28;20316;-84
2021/12/06 11:24:13;;;;;;;15.48;11.00;;;;;;;;;;5101351;28;20207;-84
2021/12/06 11:26:46;;;;;;;14.35;9.90;;;;;;;;;;5100682;28;20611;-83
2021/12/06 11:29:19;;;;;;;13.75;11.43;;;;;;;;;;5099897;28;20189;-84
2021/12/06 11:32:04;;;;;;;11.98;10.77;;;;;;;;;;5100330;28;20201;-84
2021/12/06 11:34:36;;;;;;;10.60;9.48;;;;;;;;;;5099452;28;20200;-84
2021/12/06 11:37:10;;;;;;;12.65;11.05;;;;;;;;;;5102154;28;20188;-82
2021/12/06 11:39:38;;;;;;;10.52;9.10;;;;;;;;;;5101251;28;20274;-84
2021/12/06 11:42:07;;;;;;;10.70;9.10;;;;;;;;;;5100108;28;20654;-83
2021/12/06 11:44:38;;;;;;;9.50;8.52;;;;;;;;;;5102889;28;20223;-83
2021/12/06 11:47:09;;;;;;;11.48;9.52;;;;;;;;;;5102524;28;20520;-84
2021/12/06 11:49:41;;;;;;;9.73;8.02;;;;;;;;;;5101996;28;20200;-83
2021/12/06 11:52:12;;;;;;;9.57;7.78;;;;;;;;;;5101325;28;20185;-82
2021/12/06 11:54:46;;;;;;;12.43;9.65;;;;;;;;;;5101422;28;20240;-84
2021/12/06 11:57:21;;;;;;;11.73;10.55;;;;;;;;;;5101486;28;20204;-83
2021/12/06 11:59:58;;;;;;;10.13;9.10;;;;;;;;;;5100620;28;20235;-83
2021/12/06 12:02:37;;;;;;;12.75;9.88;;;;;;;;;;5099498;28;20176;-84
2021/12/06 12:05:26;;;;;;;13.48;9.32;;;;;;;;;;5099250;28;20219;-83
2021/12/06 12:08:08;;;;;;;11.23;10.10;;;;;;;;;;5096328;28;20220;-82
2021/12/06 12:10:44;;;;;;;11.43;10.20;;;;;;;;;;5096343;28;20195;-82
2021/12/06 12:13:22;;;;;;;10.75;9.65;;;;;;;;;;5096305;28;20267;-83
2021/12/06 12:15:50;;;;;;;9.30;7.40;;;;;;;;;;5096380;28;20224;-81
2021/12/06 12:18:19;;;;;;;8.70;7.13;;;;;;;;;;5097615;28;20215;-83
2021/12/06 12:20:47;;;;;;;9.57;7.75;;;;;;;;;;5097426;28;20185;-83
2021/12/06 12:23:14;;;;;;;8.98;6.95;;;;;;;;;;5097030;28;20200;-82
2021/12/06 12:25:50;;;;;;;11.52;9.98;;;;;;;;;;5096930;28;20616;-83
2021/12/06 12:28:23;;;;;;;10.45;9.23;;;;;;;;;;5096585;28;20298;-84
2021/12/06 12:30:53;;;;;;;10.35;8.52;;;;;;;;;;5096931;28;20204;-84
2021/12/06 12:33:22;;;;;;;9.38;8.40;;;;;;;;;;5096753;28;20207;-83
2021/12/06 12:35:53;;;;;;;9.05;8.10;;;;;;;;;;5096802;28;20224;-82
2021/12/06 12:38:25;;;;;;;11.10;9.43;;;;;;;;;;5096764;28;20192;-83
2021/12/06 12:40:55;;;;;;;13.38;10.07;;;;;;;;;;5097432;28;20208;-84
2021/12/06 12:43:27;;;;;;;9.32;8.18;;;;;;;;;;5096544;28;20546;-84
2021/12/06 12:45:59;;;;;;;9.57;8.57;;;;;;;;;;5097187;28;20220;-84
2021/12/06 12:48:30;;;;;;;11.05;9.52;;;;;;;;;;5097159;28;20208;-83
2021/12/06 12:51:10;;;;;;;7.75;6.97;;;;;;;;;;5097158;28;20206;-84
2021/12/06 12:54:03;;;;;;;7.68;6.57;;;;;;;;;;5095823;28;20210;-84
2021/12/06 12:56:34;;;;;;;8.52;7.65;;;;;;;;;;5097008;28;20230;-83
2021/12/06 12:59:20;;;;;;;9.02;7.43;;;;;;;;;;5097303;28;20200;-83
2021/12/06 13:02:13;;;;;;;9.15;8.25;;;;;;;;;;5096163;28;20192;-83
2021/12/06 13:05:18;;;;;;;6.72;6.05;;;;;;;;;;5096610;28;20702;-83
2021/12/06 13:08:05;;;;;;;7.78;7.05;;;;;;;;;;5097081;28;20220;-84
2021/12/06 13:10:56;;;;;;;11.32;9.38;;;;;;;;;;5097160;28;20196;-84
2021/12/06 13:13:32;;;;;;;10.82;9.82;;;;;;;;;;5096650;28;20211;-84
2021/12/06 13:16:08;;;;;;;8.25;7.22;;;;;;;;;;5096878;28;20228;-83
2021/12/06 13:18:55;;;;;;;9.52;8.55;;;;;;;;;;5096456;28;20290;-83
2021/12/06 13:21:45;;;;;;;6.80;6.18;;;;;;;;;;5096999;28;20204;-83
2021/12/06 13:24:50;;;;;;;7.95;7.25;;;;;;;;;;5096341;28;20204;-83
2021/12/06 13:27:41;;;;;;;6.03;5.43;;;;;;;;;;5096217;28;20242;-84
2021/12/06 13:30:23;;;;;;;6.20;5.60;;;;;;;;;;5096545;28;20234;-82
2021/12/06 13:32:58;;;;;;;7.35;6.07;;;;;;;;;;5096477;28;20211;-83
2021/12/06 13:35:39;;;;;;;6.80;5.68;;;;;;;;;;5097504;28;20826;-82
2021/12/06 13:38:29;;;;;;;5.65;5.15;;;;;;;;;;5100805;28;20582;-82
2021/12/06 13:41:22;;;;;;;6.65;5.38;;;;;;;;;;5100903;28;20366;-82
2021/12/06 13:43:56;;;;;;;4.57;4.18;;;;;;;;;;5081526;28;20200;-84
2021/12/06 13:46:30;;;;;;;8.05;6.55;;;;;;;;;;5100625;28;20253;-83
2021/12/06 13:49:02;;;;;;;5.63;5.18;;;;;;;;;;5100379;28;20199;-83
2021/12/06 13:51:42;;;;;;;7.03;6.32;;;;;;;;;;5101235;28;20211;-82
2021/12/06 13:54:12;;;;;;;7.75;6.85;;;;;;;;;;5100583;28;20208;-82
2021/12/06 13:56:45;;;;;;;7.30;6.10;;;;;;;;;;5100521;28;20235;-82
2021/12/06 13:59:16;;;;;;;6.03;5.53;;;;;;;;;;5099924;28;20688;-82
2021/12/06 14:01:46;;;;;;;4.32;3.97;;;;;;;;;;5100710;28;20557;-82
2021/12/06 14:04:19;;;;;;;5.30;4.22;;;;;;;;;;5100858;28;20208;-82
2021/12/06 14:06:50;;;;;;;4.72;4.32;;;;;;;;;;5101232;28;20592;-82
2021/12/06 14:09:25;;;;;;;5.70;4.40;;;;;;;;;;5100843;28;20192;-83
2021/12/06 14:11:55;;;;;;;4.45;4.05;;;;;;;;;;5101058;28;20187;-82
2021/12/06 14:14:24;;;;;;;4.55;4.15;;;;;;;;;;5100592;28;20201;-81
2021/12/06 14:16:53;;;;;;;3.78;3.42;;;;;;;;;;5100266;28;20701;-82
2021/12/06 14:19:27;;;;;;;3.75;3.45;;;;;;;;;;5100132;28;20624;-82
2021/12/06 14:21:56;;;;;;;4.85;3.40;;;;;;;;;;5099079;28;20207;-81
2021/12/06 14:24:24;;;;;;;4.85;4.25;;;;;;;;;;5099562;28;20200;-83
2021/12/06 14:26:52;;;;;;;5.20;4.72;;;;;;;;;;5100353;28;20196;-82
2021/12/06 14:29:23;;;;;;;6.57;4.55;;;;;;;;;;5099706;28;20215;-82
2021/12/06 14:31:53;;;;;;;5.93;5.38;;;;;;;;;;5099414;28;20204;-82
2021/12/06 14:34:26;;;;;;;5.03;3.85;;;;;;;;;;5099607;28;20208;-81
2021/12/06 14:36:54;;;;;;;5.40;4.90;;;;;;;;;;5099700;28;20686;-81
2021/12/06 14:39:24;;;;;;;4.00;3.60;;;;;;;;;;5099209;28;20200;-83
2021/12/06 14:41:56;;;;;;;5.70;4.72;;;;;;;;;;5099796;28;20594;-82
2021/12/06 14:44:34;;;;;;;5.22;4.72;;;;;;;;;;5099098;28;20201;-82
2021/12/06 14:47:01;;;;;;;5.03;4.53;;;;;;;;;;5098826;28;20203;-82
2021/12/06 14:49:31;;;;;;;4.57;4.18;;;;;;;;;;5099201;28;20201;-82
2021/12/06 14:52:02;;;;;;;3.95;3.65;;;;;;;;;;5099001;28;20232;-82
2021/12/06 14:54:30;;;;;;;5.18;4.68;;;;;;;;;;5098910;28;20196;-82
2021/12/06 14:57:02;;;;;;;5.40;3.83;;;;;;;;;;5098999;28;20273;-82
2021/12/06 14:59:33;;;;;;;4.78;3.80;;;;;;;;;;5098627;28;20211;-82
2021/12/06 15:02:01;;;;;;;4.28;3.75;;;;;;;;;;5099518;28;20208;-82
2021/12/06 15:04:40;;;;;;;4.28;3.83;;;;;;;;;;5097971;28;20189;-81
2021/12/06 15:07:10;;;;;;;3.50;3.20;;;;;;;;;;5099056;28;20202;-82
2021/12/06 15:09:38;;;;;;;3.78;3.47;;;;;;;;;;5098329;28;20676;-81
2021/12/06 15:12:07;;;;;;;4.65;4.18;;;;;;;;;;5098300;28;20207;-82